Latest Weather Observations for Middle Point

IDD60801

Issued at 7:31 pm CST Thursday 28 July 2016 (issued every 30 minutes, with the page automatically refreshed every 10 minutes)

About weather observations | Map of weather stations | Latest weather observations for NT | Other Formats
Station Details ID: 014041 Name: MIDDLE POINT Lat: -12.61 Lon: 131.30 Height: 14.1 m
Data from the previous 72 hours. | See also: Recent months at Middle Point
Date/Time
CST
Temp
°C
App
Temp
°C
Dew
Point
°C
Rel
Hum
%
Delta-T
°C
Wind Press
QNH
hPa
Press
MSL
hPa
Rain since
9am
mm
Dir  Spd
km/h
Gust
km/h
Spd
kts
Gust
kts
28/07:30pm 22.5 20.6 6.7 36 8.1 S 6 7 3 4 1012.7 1012.6 0.0
28/07:00pm 25.9 23.9 7.0 30 9.9 SE 7 11 4 6 1012.4 1012.3 0.0
28/06:30pm 28.4 25.9 6.5 25 11.6 SE 9 13 5 7 1012.0 1011.9 0.0
28/06:00pm 30.6 27.3 6.5 22 12.9 SE 13 17 7 9 1011.6 1011.5 0.0
28/05:30pm 31.6 28.0 6.6 21 13.5 SSE 15 20 8 11 1011.3 1011.2 0.0
28/05:00pm 32.1 28.8 6.3 20 13.9 ESE 13 19 7 10 1011.1 1011.0 0.0
28/04:30pm 32.1 29.2 6.3 20 13.9 SE 11 22 6 12 1011.0 1010.9 0.0
28/04:00pm 32.0 29.4 6.2 20 13.9 ESE 9 20 5 11 1011.0 1010.9 0.0
28/03:30pm 32.1 28.6 5.6 19 14.1 SE 13 22 7 12 1011.3 1011.2 0.0
28/03:00pm 32.2 28.0 5.7 19 14.1 SE 17 26 9 14 1011.6 1011.5 0.0
28/02:30pm 31.9 27.8 4.6 18 14.3 ESE 15 24 8 13 1012.1 1012.0 0.0
28/02:00pm 32.0 27.4 3.9 17 14.5 SE 17 30 9 16 1012.5 1012.4 0.0
28/01:30pm 31.0 26.1 3.9 18 13.9 SE 19 32 10 17 1012.9 1012.8 0.0
28/01:00pm 31.3 26.4 4.2 18 14.0 SE 19 30 10 16 1013.4 1013.3 0.0
28/12:30pm 29.6 24.4 3.6 19 13.2 ESE 20 32 11 17 1014.0 1013.9 0.0
28/12:00pm 29.1 23.4 3.1 19 13.0 SE 22 32 12 17 1014.7 1014.6 0.0
28/11:30am 29.0 23.6 4.5 21 12.6 SE 22 37 12 20 1015.2 1015.1 0.0
28/11:00am 27.4 21.8 3.2 21 12.0 SE 22 30 12 16 1015.5 1015.4 0.0
28/10:30am 27.8 21.7 4.8 23 11.8 ESE 26 35 14 19 1016.1 1016.0 0.0
28/10:00am 26.1 20.4 5.1 26 10.7 SE 24 37 13 20 1016.5 1016.4 0.0
28/09:30am 25.1 20.6 6.3 30 9.7 SE 19 30 10 16 1016.8 1016.7 0.0
28/09:00am 22.9 18.9 6.6 35 8.3 SE 17 24 9 13 1016.8 1016.7 0.0
28/08:30am 21.1 18.8 9.0 46 6.4 SSE 11 15 6 8 1016.7 1016.6 0.0
28/08:00am 18.0 16.4 10.1 60 4.2 S 9 13 5 7 1016.4 1016.3 0.0
28/07:30am 15.5 13.9 10.3 71 2.7 SSE 9 11 5 6 1016.1 1016.0 0.0
28/07:00am 14.4 12.6 9.6 73 2.5 SSE 9 9 5 5 1015.7 1015.6 0.0
28/06:30am 13.4 12.2 10.4 82 1.6 S 7 9 4 5 1015.4 1015.3 0.0
28/06:00am 12.4 11.2 9.4 82 1.5 S 6 9 3 5 1015.1 1015.0 0.0
28/05:30am 11.6 10.5 8.5 81 1.5 SSW 4 4 2 2 1014.9 1014.8 0.0
28/05:00am 14.1 13.4 10.1 77 2.1 S 4 6 2 3 1014.7 1014.6 0.0
28/04:30am 12.4 11.9 9.2 81 1.6 SW 2 4 1 2 1014.6 1014.5 0.0
28/04:00am 13.6 12.5 9.8 78 2.0 W 6 6 3 3 1014.4 1014.3 0.0
28/03:30am 13.0 12.1 9.4 79 1.8 NW 4 11 2 6 1014.6 1014.5 0.0
28/03:00am 13.0 11.9 9.8 81 1.6 N 6 11 3 6 1014.4 1014.3 0.0
28/02:30am 13.8 13.0 9.8 77 2.1 N 4 6 2 3 1014.4 1014.3 0.0
28/02:00am 14.4 14.5 10.0 75 2.3 CALM 0 0 0 0 1014.4 1014.3 0.0
28/01:30am 14.9 13.8 10.1 73 2.5 SSW 6 6 3 3 1014.4 1014.3 0.0
28/01:00am 15.2 15.3 10.2 72 2.6 CALM 0 0 0 0 1014.3 1014.2 0.0
28/12:30am 15.2 15.3 10.2 72 2.6 CALM 0 0 0 0 1014.3 1014.2 0.0
28/12:00am 16.8 17.1 10.9 68 3.2 CALM 0 0 0 0 1014.2 1014.1 0.0
 
Date/Time
CST
Temp
°C
App
Temp
°C
Dew
Point
°C
Rel
Hum
%
Delta-T
°C
Wind Press
QNH
hPa
Press
MSL
hPa
Rain since
9am
mm
Dir  Spd
km/h
Gust
km/h
Spd
kts
Gust
kts
27/11:30pm 16.0 15.4 10.3 69 3.0 S 4 4 2 2 1014.3 1014.2 0.0
27/11:00pm 16.1 15.4 10.2 68 3.1 SSE 4 4 2 2 1014.2 1014.1 0.0
27/10:30pm 16.6 15.4 9.5 63 3.7 SSE 6 7 3 4 1014.1 1014.0 0.0
27/10:00pm 17.3 16.6 10.0 62 3.9 S 4 4 2 2 1013.9 1013.8 0.0
27/09:30pm 17.4 17.4 9.8 61 4.0 CALM 0 0 0 0 1014.0 1013.9 0.0
27/09:00pm 18.1 17.6 9.2 56 4.7 SE 2 2 1 1 1013.8 1013.7 0.0
27/08:30pm 20.8 19.1 8.4 45 6.5 ESE 7 9 4 5 1013.3 1013.2 0.0
27/08:00pm 22.5 20.4 6.7 36 8.1 ESE 7 9 4 5 1012.9 1012.8 0.0
27/07:30pm 25.8 24.1 7.4 31 9.7 E 6 7 3 4 1012.5 1012.4 0.0
27/07:00pm 26.9 24.9 6.9 28 10.6 E 7 9 4 5 1012.3 1012.2 0.0
27/06:30pm 29.3 26.3 6.0 23 12.3 SE 11 15 6 8 1011.9 1011.8 0.0
27/06:00pm 31.7 27.9 6.0 20 13.7 ESE 15 19 8 10 1011.5 1011.4 0.0
27/05:30pm 32.9 28.7 5.5 18 14.6 ESE 17 24 9 13 1011.2 1011.1 0.0
27/05:00pm 33.3 28.4 5.0 17 15.0 ESE 20 28 11 15 1010.9 1010.8 0.0
27/04:30pm 33.8 30.1 6.2 18 15.0 SE 15 22 8 12 1010.6 1010.6 0.0
27/04:00pm 33.6 28.7 6.8 19 14.7 ESE 22 39 12 21 1010.6 1010.6 0.0
27/03:30pm 33.3 29.2 8.0 21 14.1 ESE 19 30 10 16 1010.6 1010.6 0.0
27/03:00pm 33.9 28.6 8.5 21 14.3 ESE 26 37 14 20 1011.1 1011.0 0.0
27/02:30pm 33.3 28.5 8.7 22 13.8 SE 24 35 13 19 1011.5 1011.4 0.0
27/02:00pm 33.1 28.6 8.5 22 13.8 SE 22 39 12 21 1012.0 1011.9 0.0
27/01:30pm 32.5 27.5 8.0 22 13.6 SE 24 35 13 19 1012.5 1012.4 0.0
27/01:17pm 32.3 26.6 8.5 23 13.3 ESE 28 63 15 34 1012.7 1012.6 0.0
27/01:08pm 32.5 27.8 9.3 24 13.1 ESE 24 63 13 34 1012.5 1012.4 0.0
27/01:00pm 31.7 26.1 8.7 24 12.8 ESE 28 43 15 23 1013.0 1012.9 0.0
27/12:30pm 32.2 27.4 10.3 26 12.6 ESE 26 35 14 19 1013.8 1013.7 0.0
27/12:00pm 31.7 26.8 9.8 26 12.4 ESE 26 35 14 19 1014.1 1014.0 0.0
27/11:47am 30.9 24.8 9.7 27 12.0 ESE 32 50 17 27 1014.4 1014.3 0.0
27/11:30am 30.3 25.1 10.3 29 11.4 ESE 28 39 15 21 1014.7 1014.6 0.0
27/11:00am 29.8 25.5 10.9 31 10.8 ESE 24 33 13 18 1015.2 1015.1 0.0
27/10:30am 29.0 24.0 11.1 33 10.2 ESE 28 37 15 20 1015.4 1015.3 0.0
27/10:00am 27.9 24.4 11.0 35 9.6 SE 20 30 11 16 1015.7 1015.6 0.0
27/09:30am 26.0 23.7 11.7 41 8.2 SE 15 22 8 12 1015.8 1015.7 0.0
27/09:00am 24.2 22.7 13.1 50 6.4 SSE 13 20 7 11 1015.7 1015.6 0.0
27/08:30am 20.5 19.5 15.7 74 2.9 SSE 15 20 8 11 1015.6 1015.5 0.0
27/08:00am 16.8 18.1 15.2 90 0.9 SSW 2 4 1 2 1014.8 1014.7 0.0
27/07:30am 15.0 15.2 13.2 89 1.0 SW 4 4 2 2 1014.4 1014.3 0.0
27/07:00am 15.5 16.8 14.0 91 0.8 CALM 0 0 0 0 1014.0 1013.9 0.0
27/06:30am 15.3 15.9 13.2 87 1.2 S 2 4 1 2 1013.7 1013.6 0.0
27/06:00am 16.1 16.3 14.3 89 1.0 SSE 6 7 3 4 1013.5 1013.4 0.0
27/05:30am 15.6 16.7 13.6 88 1.1 CALM 0 0 0 0 1013.3 1013.2 0.0
27/05:00am 15.5 16.6 13.5 88 1.1 CALM 0 0 0 0 1013.2 1013.1 0.0
27/04:30am 15.6 16.7 13.6 88 1.1 CALM 0 0 0 0 1013.1 1013.0 0.0
27/04:00am 15.8 16.8 13.1 84 1.5 CALM 0 0 0 0 1013.0 1012.9 0.0
27/03:30am 16.2 17.4 13.9 86 1.3 CALM 0 0 0 0 1013.0 1012.9 0.0
27/03:00am 16.3 17.5 13.8 85 1.4 CALM 0 4 0 2 1013.1 1013.0 0.0
27/02:30am 17.1 18.3 13.8 81 1.9 CALM 0 0 0 0 1013.1 1013.0 0.0
27/02:00am 17.9 19.3 14.4 80 2.0 CALM 0 0 0 0 1013.2 1013.1 0.0
27/01:30am 18.3 19.9 15.0 81 1.9 CALM 0 0 0 0 1013.1 1013.0 0.0
27/01:00am 17.4 18.6 13.9 80 2.0 CALM 0 0 0 0 1013.3 1013.2 0.0
27/12:30am 18.2 19.7 14.7 80 2.0 CALM 0 0 0 0 1013.5 1013.4 0.0
27/12:00am 19.2 20.6 14.5 74 2.7 CALM 0 0 0 0 1013.6 1013.5 0.0
 
Date/Time
CST
Temp
°C
App
Temp
°C
Dew
Point
°C
Rel
Hum
%
Delta-T
°C
Wind Press
QNH
hPa
Press
MSL
hPa
Rain since
9am
mm
Dir  Spd
km/h
Gust
km/h
Spd
kts
Gust
kts
26/11:30pm 19.5 21.3 15.4 77 2.4 CALM 0 0 0 0 1013.6 1013.5 0.0
26/11:00pm 20.6 20.4 15.8 74 2.9 SSW 11 13 6 7 1013.6 1013.5 0.0
26/10:30pm 18.0 18.8 13.7 76 2.4 WSW 2 6 1 3 1013.2 1013.1 0.0
26/10:00pm 18.8 20.2 14.3 75 2.6 CALM 0 4 0 2 1013.1 1013.0 0.0
26/09:30pm 20.1 21.4 14.0 68 3.5 CALM 0 0 0 0 1013.0 1012.9 0.0
26/09:00pm 21.2 21.5 14.4 65 4.0 NE 6 7 3 4 1012.7 1012.6 0.0
26/08:30pm 21.9 22.5 14.3 62 4.4 N 4 4 2 2 1012.5 1012.4 0.0
26/08:00pm 24.2 25.3 14.6 55 5.7 N 2 2 1 1 1012.0 1011.9 0.0
26/07:30pm 24.6 24.5 13.8 51 6.3 N 7 9 4 5 1011.6 1011.5 0.0
26/07:00pm 25.9 25.0 12.7 44 7.7 N 9 11 5 6 1011.2 1011.1 0.0
26/06:30pm 28.6 26.5 12.5 37 9.4 N 15 20 8 11 1010.6 1010.6 0.0
26/06:00pm 32.4 30.3 6.6 20 14.0 ENE 7 15 4 8 1010.0 1010.0 0.0
26/05:30pm 33.2 29.9 6.5 19 14.5 E 13 20 7 11 1009.7 1009.7 0.0
26/05:00pm 33.9 30.6 6.3 18 15.0 ESE 13 22 7 12 1009.4 1009.4 0.0
26/04:30pm 33.8 30.1 6.2 18 15.0 ESE 15 24 8 13 1009.3 1009.3 0.0
26/04:00pm 34.0 29.9 6.3 18 15.1 ESE 17 26 9 14 1009.4 1009.4 0.0
26/03:30pm 34.2 30.5 6.5 18 15.1 ENE 15 24 8 13 1009.6 1009.6 0.0
26/03:00pm 33.7 30.0 6.1 18 14.9 E 15 28 8 15 1009.9 1009.9 0.0
26/02:30pm 33.6 29.6 6.8 19 14.7 ESE 17 35 9 19 1010.3 1010.3 0.0
26/02:00pm 33.7 29.8 6.9 19 14.7 ESE 17 24 9 13 1011.0 1010.9 0.0
26/01:30pm 33.8 30.0 7.7 20 14.5 SE 17 26 9 14 1011.6 1011.5 0.0
26/01:00pm 34.1 30.8 9.4 22 14.1 ESE 17 33 9 18 1012.1 1012.0 0.0
26/12:30pm 32.4 27.9 8.6 23 13.3 SE 22 32 12 17 1012.6 1012.5 0.0
26/12:00pm 31.9 28.3 10.0 26 12.5 ESE 19 28 10 15 1013.0 1012.9 0.0
26/11:30am 31.7 27.9 11.0 28 12.0 E 22 32 12 17 1013.5 1013.4 0.0
26/11:00am 30.7 27.6 11.6 31 11.1 ESE 19 26 10 14 1014.0 1013.9 0.0
26/10:30am 29.9 27.0 12.8 35 10.1 ESE 20 30 11 16 1014.2 1014.1 0.0
26/10:00am 29.2 27.5 14.6 41 8.8 SE 17 24 9 13 1014.5 1014.4 0.0
26/09:30am 27.3 28.5 18.3 58 5.7 SE 9 17 5 9 1014.6 1014.5 0.0
26/09:00am 24.4 26.4 19.9 76 2.9 SSE 9 13 5 7 1014.6 1014.5 0.0
26/08:30am 22.1 24.5 19.6 86 1.6 SSE 6 7 3 4 1014.1 1014.0 0.0
26/08:00am 19.1 21.5 17.9 93 0.7 SSW 2 4 1 2 1013.9 1013.8 0.0
26/07:30am 16.5 17.7 14.9 90 0.9 S 2 2 1 1 1013.7 1013.6 0.0
26/07:00am 17.4 19.3 15.7 90 1.0 CALM 0 0 0 0 1013.4 1013.3 0.0
26/06:30am 17.2 19.0 15.5 90 1.0 CALM 0 0 0 0 1013.0 1012.9 0.0
26/06:00am 17.1 18.9 15.4 90 1.0 CALM 0 0 0 0 1013.1 1013.0 0.0
26/05:30am 17.4 19.1 15.2 87 1.3 CALM 0 2 0 1 1013.0 1012.9 0.0
26/05:00am 18.0 20.1 16.2 89 1.1 CALM 0 2 0 1 1012.8 1012.7 0.0
26/04:30am 17.7 19.5 15.5 87 1.3 CALM 0 0 0 0 1012.7 1012.6 0.0
26/04:00am 18.4 20.7 16.7 90 1.0 CALM 0 0 0 0 1012.6 1012.5 0.0
26/03:30am 17.4 18.8 15.4 88 1.2 S 2 4 1 2 1012.6 1012.5 0.0
26/03:00am 18.7 20.9 16.5 87 1.3 CALM 0 0 0 0 1012.8 1012.7 0.0
26/02:30am 19.5 21.4 16.7 84 1.7 SE 2 4 1 2 1012.8 1012.7 0.0
26/02:00am 19.6 21.5 16.6 83 1.8 ESE 2 7 1 4 1012.9 1012.8 0.0
26/01:30am 20.1 22.6 17.3 84 1.7 CALM 0 0 0 0 1012.9 1012.8 0.0
26/01:00am 19.5 20.4 16.2 81 2.0 WSW 6 6 3 3 1013.0 1012.9 0.0
26/12:30am 19.4 20.5 15.7 79 2.2 WSW 4 6 2 3 1013.1 1013.0 0.0
26/12:00am 20.1 21.7 15.9 77 2.5 WSW 2 6 1 3 1013.2 1013.1 0.0
 
Date/Time
CST
Temp
°C
App
Temp
°C
Dew
Point
°C
Rel
Hum
%
Delta-T
°C
Wind Press
QNH
hPa
Press
MSL
hPa
Rain since
9am
mm
Dir  Spd
km/h
Gust
km/h
Spd
kts
Gust
kts
25/11:30pm 20.1 21.3 15.9 77 2.5 W 4 6 2 3 1013.2 1013.1 0.0
25/11:00pm 20.3 21.1 15.9 76 2.6 W 6 6 3 3 1013.2 1013.1 0.0
25/10:30pm 20.4 22.1 16.2 77 2.5 W 2 4 1 2 1013.1 1013.0 0.0
25/10:00pm 20.6 22.6 16.0 75 2.8 CALM 0 0 0 0 1012.9 1012.8 0.0
25/09:30pm 21.1 22.8 16.1 73 3.0 WNW 2 6 1 3 1012.6 1012.5 0.0
25/09:00pm 21.3 21.9 14.2 64 4.1 NW 4 4 2 2 1012.3 1012.2 0.0
25/08:30pm 21.7 22.7 15.3 67 3.8 WNW 4 6 2 3 1011.7 1011.6 0.0
25/08:00pm 21.6 21.7 14.5 64 4.2 W 7 9 4 5 1011.2 1011.1 0.0

Other Formats:

Comma delimited format used in spreadsheet applications
http://www.bom.gov.au/fwo/IDD60801/IDD60801.95121.axf

JavaScript Object Notation format (JSON) in row-major order
http://www.bom.gov.au/fwo/IDD60801/IDD60801.95121.json